createdAt,value
2023-08-06T00:00:57.910Z,93.00
2023-08-06T00:03:25.866Z,93.00
2023-08-06T00:05:52.733Z,93.00
2023-08-06T00:08:19.511Z,93.00
2023-08-06T00:10:49.590Z,93.00
2023-08-06T00:13:16.452Z,92.90
2023-08-06T00:15:43.251Z,93.00
2023-08-06T00:18:10.046Z,93.00
2023-08-06T00:20:39.393Z,93.00
2023-08-06T00:23:06.127Z,93.00
2023-08-06T00:25:32.998Z,93.00
2023-08-06T00:27:59.815Z,92.90
2023-08-06T00:30:26.578Z,92.90
2023-08-06T00:32:53.345Z,92.90
2023-08-06T00:35:20.117Z,93.00
2023-08-06T00:37:47.314Z,93.00
2023-08-06T00:40:14.123Z,93.00
2023-08-06T00:42:41.024Z,93.00
2023-08-06T00:45:08.271Z,93.00
2023-08-06T00:47:35.118Z,92.90
2023-08-06T00:50:02.845Z,93.00
2023-08-06T00:52:29.746Z,93.00
2023-08-06T00:54:56.699Z,93.00
2023-08-06T00:57:25.914Z,93.00
2023-08-06T00:59:53.582Z,92.90
2023-08-06T01:02:20.525Z,92.90
2023-08-06T01:04:47.297Z,92.90
2023-08-06T01:07:19.785Z,92.90
2023-08-06T01:09:52.658Z,92.90
2023-08-06T01:12:25.230Z,92.90
2023-08-06T01:14:54.689Z,92.90
2023-08-06T01:17:21.843Z,93.00
2023-08-06T01:19:48.633Z,93.00
2023-08-06T01:22:15.518Z,93.00
2023-08-06T01:24:48.949Z,93.00
2023-08-06T01:27:41.604Z,92.90
2023-08-06T01:30:14.999Z,92.90
2023-08-06T01:32:47.289Z,92.90
2023-08-06T01:35:17.199Z,93.00
2023-08-06T01:37:44.544Z,93.00
2023-08-06T01:40:12.988Z,93.00
2023-08-06T01:42:40.546Z,93.00
2023-08-06T01:45:09.006Z,93.00
2023-08-06T01:47:36.065Z,92.90
2023-08-06T01:50:03.289Z,92.90
2023-08-06T01:52:30.130Z,92.90
2023-08-06T01:54:57.104Z,92.90
2023-08-06T01:57:23.945Z,92.90
2023-08-06T01:59:50.705Z,92.90
2023-08-06T02:02:17.540Z,92.80
2023-08-06T02:04:44.330Z,92.80
2023-08-06T02:07:11.248Z,92.80
2023-08-06T02:09:38.022Z,92.80
2023-08-06T02:12:05.221Z,92.80
2023-08-06T02:14:32.041Z,92.80
2023-08-06T02:16:58.816Z,92.80
2023-08-06T02:19:25.556Z,92.80
2023-08-06T02:21:52.660Z,92.80
2023-08-06T02:24:19.571Z,92.80
2023-08-06T02:26:46.457Z,92.80
2023-08-06T02:29:13.477Z,92.80
2023-08-06T02:31:40.239Z,92.90
2023-08-06T02:34:06.958Z,92.90
2023-08-06T02:36:33.750Z,92.90
2023-08-06T02:39:00.513Z,92.90
2023-08-06T02:41:27.304Z,92.90
2023-08-06T02:43:54.256Z,92.90
2023-08-06T02:46:21.044Z,92.90
2023-08-06T02:48:47.874Z,92.90
2023-08-06T02:51:14.587Z,92.90
2023-08-06T02:53:41.453Z,92.90
2023-08-06T02:56:08.225Z,92.90
2023-08-06T02:58:35.009Z,92.90
2023-08-06T03:01:04.094Z,92.90
2023-08-06T03:03:32.461Z,92.80
2023-08-06T03:05:59.349Z,92.80
2023-08-06T03:08:26.999Z,92.80
2023-08-06T03:10:54.189Z,92.80
2023-08-06T03:13:21.046Z,92.80
2023-08-06T03:15:55.774Z,92.80
2023-08-06T03:18:23.006Z,92.80
2023-08-06T03:20:50.143Z,92.70
2023-08-06T03:23:17.054Z,92.70
2023-08-06T03:25:44.037Z,92.70
2023-08-06T03:28:10.959Z,92.70
2023-08-06T03:30:37.827Z,92.70
2023-08-06T03:33:04.786Z,92.60
2023-08-06T03:35:31.599Z,92.60
2023-08-06T03:37:58.447Z,92.60
2023-08-06T03:40:25.292Z,92.60
2023-08-06T03:42:52.264Z,92.60
2023-08-06T03:45:19.106Z,92.60
2023-08-06T03:47:45.905Z,92.60
2023-08-06T03:50:12.754Z,92.60
2023-08-06T03:52:39.576Z,92.60
2023-08-06T03:55:06.653Z,92.60
2023-08-06T03:57:33.487Z,92.60
2023-08-06T04:00:00.281Z,92.60
2023-08-06T04:02:27.271Z,92.60
2023-08-06T04:04:55.062Z,92.60
2023-08-06T04:07:22.394Z,92.60
2023-08-06T04:10:05.892Z,92.60
2023-08-06T04:12:33.795Z,92.60
2023-08-06T04:15:01.868Z,92.60
2023-08-06T04:17:28.692Z,92.60
2023-08-06T04:19:56.256Z,92.60
2023-08-06T04:22:23.037Z,92.60
2023-08-06T04:24:49.894Z,92.60
2023-08-06T04:27:17.706Z,92.60
2023-08-06T04:29:44.490Z,92.60
2023-08-06T04:32:11.765Z,92.60
2023-08-06T04:34:38.764Z,92.60
2023-08-06T04:37:06.289Z,92.60
2023-08-06T04:39:33.285Z,92.60
2023-08-06T04:42:00.239Z,92.60
2023-08-06T04:44:27.325Z,92.60
2023-08-06T04:46:54.269Z,92.60
2023-08-06T04:49:24.404Z,92.70
2023-08-06T04:51:51.413Z,92.70
2023-08-06T04:54:18.458Z,92.70
2023-08-06T04:56:45.207Z,92.70
2023-08-06T04:59:11.961Z,92.70
2023-08-06T05:01:38.834Z,92.70
2023-08-06T05:04:05.658Z,92.70
2023-08-06T05:06:32.585Z,92.70
2023-08-06T05:08:59.325Z,92.70
2023-08-06T05:11:26.461Z,92.70
2023-08-06T05:13:53.286Z,92.70
2023-08-06T05:16:20.122Z,92.70
2023-08-06T05:18:47.050Z,92.70
2023-08-06T05:21:13.944Z,92.70
2023-08-06T05:23:40.733Z,92.70
2023-08-06T05:26:07.525Z,92.70
2023-08-06T05:28:34.770Z,92.70
2023-08-06T05:31:07.794Z,92.80
2023-08-06T05:33:34.605Z,92.80
2023-08-06T05:36:01.416Z,92.80
2023-08-06T05:38:28.341Z,92.70
2023-08-06T05:40:55.278Z,92.70
2023-08-06T05:43:22.177Z,92.70
2023-08-06T05:45:51.399Z,92.70
2023-08-06T05:48:18.431Z,92.70
2023-08-06T05:50:45.273Z,92.70
2023-08-06T05:53:12.080Z,92.70
2023-08-06T05:55:40.071Z,92.70
2023-08-06T05:58:06.959Z,92.70
2023-08-06T06:00:33.777Z,92.70
2023-08-06T06:03:00.618Z,92.70
2023-08-06T06:05:27.477Z,92.70
2023-08-06T06:07:54.330Z,92.70
2023-08-06T06:10:21.202Z,92.70
2023-08-06T06:12:47.979Z,92.80
2023-08-06T06:15:14.784Z,92.80
2023-08-06T06:17:41.595Z,92.70
2023-08-06T06:20:08.912Z,92.80
2023-08-06T06:22:35.775Z,92.80
2023-08-06T06:25:02.579Z,92.80
2023-08-06T06:27:29.352Z,92.80
2023-08-06T06:29:56.128Z,92.80
2023-08-06T06:32:23.484Z,92.80
2023-08-06T06:34:50.402Z,92.70
2023-08-06T06:37:17.236Z,92.80
2023-08-06T06:39:45.225Z,92.70
2023-08-06T06:42:12.086Z,92.70
2023-08-06T06:44:38.898Z,92.70
2023-08-06T06:47:05.779Z,92.70
2023-08-06T06:49:32.614Z,92.80
2023-08-06T06:51:59.440Z,92.80
2023-08-06T06:54:26.252Z,92.80
2023-08-06T06:56:53.037Z,92.80
2023-08-06T06:59:19.790Z,92.80
2023-08-06T07:01:46.637Z,92.70
2023-08-06T07:04:13.413Z,92.80
2023-08-06T07:06:40.293Z,92.80
2023-08-06T07:09:07.128Z,92.80
2023-08-06T07:11:33.943Z,92.70
2023-08-06T07:14:00.743Z,92.70
2023-08-06T07:16:27.817Z,92.70
2023-08-06T07:18:55.392Z,92.70
2023-08-06T07:21:22.720Z,92.70
2023-08-06T07:23:50.904Z,92.60
2023-08-06T07:26:18.482Z,92.60
2023-08-06T07:28:45.941Z,92.70
2023-08-06T07:31:13.187Z,92.70
2023-08-06T07:33:40.275Z,92.70
2023-08-06T07:36:14.788Z,92.60
2023-08-06T07:38:42.276Z,92.70
2023-08-06T07:41:10.306Z,92.60
2023-08-06T07:43:37.218Z,92.70
2023-08-06T07:46:04.232Z,92.70
2023-08-06T07:48:31.326Z,92.70
2023-08-06T07:50:58.984Z,92.70
2023-08-06T07:53:30.690Z,92.70
2023-08-06T07:55:58.343Z,92.70
2023-08-06T07:58:26.763Z,92.80
2023-08-06T08:00:53.700Z,92.70
2023-08-06T08:03:21.097Z,92.60
2023-08-06T08:05:48.433Z,92.60
2023-08-06T08:08:15.344Z,92.70
2023-08-06T08:10:44.084Z,92.80
2023-08-06T08:13:11.285Z,92.80
2023-08-06T08:15:38.188Z,92.60
2023-08-06T08:18:05.077Z,92.60
2023-08-06T08:20:36.369Z,92.60
2023-08-06T08:23:03.916Z,92.60
2023-08-06T08:25:32.729Z,92.70
2023-08-06T08:27:59.563Z,92.60
2023-08-06T08:30:26.860Z,92.50
2023-08-06T08:32:54.261Z,92.50
2023-08-06T08:35:21.117Z,92.50
2023-08-06T08:37:47.977Z,92.40
2023-08-06T08:40:16.158Z,92.50
2023-08-06T08:42:43.911Z,92.40
2023-08-06T08:45:15.705Z,92.40
2023-08-06T08:47:47.750Z,92.40
2023-08-06T08:50:16.297Z,92.50
2023-08-06T08:52:46.777Z,92.40
2023-08-06T08:55:16.297Z,92.50
2023-08-06T08:57:43.324Z,92.50
2023-08-06T09:00:10.701Z,92.50
2023-08-06T09:02:39.167Z,92.50
2023-08-06T09:05:06.586Z,92.40
2023-08-06T09:07:42.493Z,92.30
2023-08-06T09:10:12.256Z,92.40
2023-08-06T09:12:39.081Z,92.40
2023-08-06T09:15:06.405Z,92.50
2023-08-06T09:17:34.358Z,92.20
2023-08-06T09:20:11.002Z,92.10
2023-08-06T09:22:37.762Z,91.90
2023-08-06T09:25:10.601Z,92.00
2023-08-06T09:27:40.808Z,92.00
2023-08-06T09:30:08.534Z,92.00
2023-08-06T09:32:48.718Z,92.10
2023-08-06T09:35:19.652Z,92.20
2023-08-06T09:37:48.749Z,92.30
2023-08-06T09:40:25.173Z,92.40
2023-08-06T09:42:52.385Z,92.50
2023-08-06T09:45:19.170Z,92.40
2023-08-06T09:47:46.050Z,92.30
2023-08-06T09:50:20.601Z,92.00
2023-08-06T09:52:53.013Z,92.20
2023-08-06T09:55:22.200Z,92.30
2023-08-06T09:57:50.874Z,92.40
2023-08-06T10:00:18.420Z,92.40
2023-08-06T10:02:46.471Z,92.30
2023-08-06T10:05:13.894Z,92.20
2023-08-06T10:07:41.175Z,92.30
2023-08-06T10:10:08.495Z,92.40
2023-08-06T10:12:40.043Z,92.10
2023-08-06T10:15:11.939Z,92.40
2023-08-06T10:17:50.327Z,92.40
2023-08-06T10:20:20.116Z,92.00
2023-08-06T10:22:46.986Z,92.20
2023-08-06T10:25:18.010Z,92.50
2023-08-06T10:27:50.730Z,92.40
2023-08-06T10:30:30.540Z,92.10
2023-08-06T10:33:04.938Z,92.30
2023-08-06T10:35:51.911Z,92.30
2023-08-06T10:38:23.994Z,92.50
2023-08-06T10:41:02.539Z,92.40
2023-08-06T10:43:40.010Z,92.10
2023-08-06T10:46:21.868Z,92.00
2023-08-06T10:48:48.679Z,92.30
2023-08-06T10:51:16.090Z,92.40
2023-08-06T10:53:47.261Z,91.50
2023-08-06T10:56:15.303Z,91.20
2023-08-06T10:58:43.340Z,91.10
2023-08-06T11:01:11.287Z,90.10
2023-08-06T11:03:39.277Z,88.90
2023-08-06T11:06:08.564Z,87.20
2023-08-06T11:08:37.349Z,80.10
2023-08-06T11:11:14.501Z,86.50
2023-08-06T11:13:47.505Z,84.10
2023-08-06T11:16:19.599Z,88.70
2023-08-06T11:18:47.118Z,82.00
2023-08-06T11:21:14.251Z,83.20
2023-08-06T11:23:42.010Z,85.20
2023-08-06T11:26:09.093Z,87.70
2023-08-06T11:28:36.071Z,90.00
2023-08-06T11:31:04.622Z,90.50
2023-08-06T11:33:32.305Z,90.60
2023-08-06T11:36:01.073Z,90.70
2023-08-06T11:38:31.768Z,90.50
2023-08-06T11:40:58.635Z,90.10
2023-08-06T11:43:25.533Z,90.40
2023-08-06T11:45:54.439Z,89.80
2023-08-06T11:48:21.511Z,90.70
2023-08-06T11:50:48.246Z,82.20
2023-08-06T11:53:16.263Z,80.00
2023-08-06T11:55:43.842Z,88.70
2023-08-06T11:58:15.573Z,80.10
2023-08-06T12:00:43.804Z,74.80
2023-08-06T12:03:11.280Z,80.30
2023-08-06T12:05:39.929Z,72.60
2023-08-06T12:08:06.871Z,50.40
2023-08-06T12:10:33.895Z,1.00
2023-08-06T12:13:01.680Z,1.00
2023-08-06T12:15:28.967Z,34.50
2023-08-06T12:17:56.936Z,74.80
2023-08-06T12:20:23.799Z,83.00
2023-08-06T12:22:50.724Z,88.00
2023-08-06T12:25:17.953Z,90.20
2023-08-06T12:27:45.784Z,90.20
2023-08-06T12:30:13.690Z,90.80
2023-08-06T12:32:41.405Z,91.20
2023-08-06T12:35:09.060Z,91.00
2023-08-06T12:37:36.233Z,90.70
2023-08-06T12:40:15.719Z,90.60
2023-08-06T12:42:52.055Z,91.00
2023-08-06T12:45:22.185Z,90.90
2023-08-06T12:47:49.910Z,91.00
2023-08-06T12:50:18.383Z,91.30
2023-08-06T12:52:45.429Z,91.40
2023-08-06T12:55:12.314Z,91.40
2023-08-06T12:57:51.928Z,91.60
2023-08-06T13:00:24.084Z,91.60
2023-08-06T13:02:51.060Z,91.00
2023-08-06T13:05:17.945Z,90.80
2023-08-06T13:07:44.764Z,90.70
2023-08-06T13:10:11.549Z,90.70
2023-08-06T13:12:38.353Z,90.90
2023-08-06T13:15:05.617Z,91.10
2023-08-06T13:17:32.616Z,91.00
2023-08-06T13:19:59.474Z,90.80
2023-08-06T13:22:26.239Z,91.30
2023-08-06T13:24:53.031Z,91.30
2023-08-06T13:27:19.829Z,90.70
2023-08-06T13:29:46.610Z,90.80
2023-08-06T13:32:13.503Z,91.00
2023-08-06T13:34:40.289Z,91.40
2023-08-06T13:37:07.119Z,90.80
2023-08-06T13:39:33.885Z,90.80
2023-08-06T13:42:00.648Z,91.30
2023-08-06T13:44:27.449Z,91.00
2023-08-06T13:46:54.526Z,90.80
2023-08-06T13:49:21.561Z,91.30
2023-08-06T13:51:48.283Z,91.50
2023-08-06T13:54:15.087Z,91.80
2023-08-06T13:56:42.344Z,91.20
2023-08-06T13:59:09.512Z,90.60
2023-08-06T14:01:49.305Z,90.80
2023-08-06T14:04:18.032Z,91.00
2023-08-06T14:06:45.568Z,91.10
2023-08-06T14:09:15.148Z,91.00
2023-08-06T14:11:42.162Z,90.80
2023-08-06T14:14:09.014Z,91.20
2023-08-06T14:16:36.248Z,91.00
2023-08-06T14:19:03.660Z,90.90
2023-08-06T14:21:30.613Z,91.20
2023-08-06T14:23:57.455Z,91.20
2023-08-06T14:26:24.258Z,90.70
2023-08-06T14:28:55.518Z,90.80
2023-08-06T14:31:22.574Z,90.90
2023-08-06T14:33:49.498Z,91.00
2023-08-06T14:36:16.416Z,90.40
2023-08-06T14:38:53.898Z,90.60
2023-08-06T14:41:25.738Z,90.90
2023-08-06T14:43:53.037Z,89.80
2023-08-06T14:46:20.044Z,88.90
2023-08-06T14:48:46.962Z,90.20
2023-08-06T14:51:13.815Z,90.60
2023-08-06T14:53:40.801Z,91.00
2023-08-06T14:56:07.676Z,90.80
2023-08-06T14:58:34.557Z,91.10
2023-08-06T15:01:01.457Z,91.00
2023-08-06T15:03:29.408Z,91.00
2023-08-06T15:05:56.209Z,90.60
2023-08-06T15:08:23.153Z,91.00
2023-08-06T15:10:53.892Z,91.30
2023-08-06T15:13:21.196Z,91.40
2023-08-06T15:15:53.748Z,91.40
2023-08-06T15:18:20.624Z,91.50
2023-08-06T15:20:47.756Z,91.60
2023-08-06T15:23:15.575Z,91.60
2023-08-06T15:25:42.619Z,91.60
2023-08-06T15:28:09.471Z,91.60
2023-08-06T15:30:36.545Z,91.60
2023-08-06T15:33:03.629Z,91.70
2023-08-06T15:35:30.606Z,91.60
2023-08-06T15:37:57.480Z,91.70
2023-08-06T15:40:24.324Z,91.90
2023-08-06T15:42:51.175Z,91.90
2023-08-06T15:45:17.943Z,91.90
2023-08-06T15:47:45.037Z,91.80
2023-08-06T15:50:11.936Z,91.70
2023-08-06T15:52:38.694Z,91.70
2023-08-06T15:55:06.909Z,91.70
2023-08-06T15:57:34.969Z,91.60
2023-08-06T16:00:02.262Z,91.70
2023-08-06T16:02:29.191Z,91.80
2023-08-06T16:04:57.733Z,91.80
2023-08-06T16:07:25.174Z,91.80
2023-08-06T16:09:53.586Z,91.80
2023-08-06T16:12:21.119Z,91.70
2023-08-06T16:14:48.353Z,91.50
2023-08-06T16:17:15.349Z,91.50
2023-08-06T16:19:42.395Z,91.50
2023-08-06T16:22:09.680Z,91.60
2023-08-06T16:24:38.686Z,91.50
2023-08-06T16:27:06.121Z,91.50
2023-08-06T16:29:33.987Z,91.70
2023-08-06T16:32:01.251Z,91.60
2023-08-06T16:34:28.340Z,91.70
2023-08-06T16:36:55.410Z,91.80
2023-08-06T16:39:24.868Z,91.80
2023-08-06T16:41:51.643Z,91.70
2023-08-06T16:44:18.432Z,91.70
2023-08-06T16:46:45.204Z,91.70
2023-08-06T16:49:11.969Z,91.60
2023-08-06T16:51:38.848Z,91.50
2023-08-06T16:54:05.621Z,91.60
2023-08-06T16:56:32.528Z,91.70
2023-08-06T16:59:00.681Z,91.80
2023-08-06T17:01:27.760Z,91.90
2023-08-06T17:03:56.422Z,91.90
2023-08-06T17:06:23.548Z,92.00
2023-08-06T17:08:50.639Z,92.00
2023-08-06T17:11:17.537Z,92.00
2023-08-06T17:13:44.365Z,92.00
2023-08-06T17:16:11.225Z,92.00
2023-08-06T17:18:38.064Z,92.00
2023-08-06T17:21:04.844Z,92.00
2023-08-06T17:23:31.674Z,92.00
2023-08-06T17:25:58.543Z,92.00
2023-08-06T17:28:25.316Z,91.90
2023-08-06T17:30:52.541Z,92.00
2023-08-06T17:33:19.478Z,92.00
2023-08-06T17:35:46.416Z,92.00
2023-08-06T17:38:13.770Z,92.00
2023-08-06T17:40:40.822Z,92.10
2023-08-06T17:43:08.004Z,92.00
2023-08-06T17:45:34.935Z,92.00
2023-08-06T17:48:01.864Z,92.00
2023-08-06T17:50:28.879Z,92.00
2023-08-06T17:52:55.888Z,92.00
2023-08-06T17:55:23.484Z,91.90
2023-08-06T17:57:50.556Z,91.90
2023-08-06T18:00:17.402Z,91.80
2023-08-06T18:02:44.345Z,91.90
2023-08-06T18:05:15.818Z,91.90
2023-08-06T18:07:45.831Z,91.90
2023-08-06T18:10:13.686Z,91.90
2023-08-06T18:12:43.615Z,92.00
2023-08-06T18:15:12.550Z,92.00
2023-08-06T18:17:40.773Z,92.00
2023-08-06T18:20:08.360Z,92.00
2023-08-06T18:22:36.031Z,92.00
2023-08-06T18:25:08.418Z,92.10
2023-08-06T18:27:35.563Z,92.00
2023-08-06T18:30:02.714Z,92.10
2023-08-06T18:32:29.671Z,92.10
2023-08-06T18:34:56.622Z,92.00
2023-08-06T18:37:23.552Z,92.10
2023-08-06T18:39:51.193Z,92.10
2023-08-06T18:42:18.296Z,92.00
2023-08-06T18:44:45.526Z,92.10
2023-08-06T18:47:12.593Z,92.00
2023-08-06T18:49:40.024Z,92.00
2023-08-06T18:52:07.963Z,92.00
2023-08-06T18:54:34.993Z,92.00
2023-08-06T18:57:01.952Z,92.00
2023-08-06T18:59:29.111Z,92.00
2023-08-06T19:01:56.142Z,92.00
2023-08-06T19:04:25.284Z,92.00
2023-08-06T19:06:52.490Z,92.00
2023-08-06T19:09:19.668Z,92.00
2023-08-06T19:11:46.648Z,92.00
2023-08-06T19:14:13.977Z,92.00
2023-08-06T19:16:47.212Z,92.00
2023-08-06T19:19:14.776Z,92.00
2023-08-06T19:21:47.190Z,92.00
2023-08-06T19:24:15.355Z,92.00
2023-08-06T19:26:42.463Z,92.00
2023-08-06T19:29:09.398Z,92.00
2023-08-06T19:31:36.240Z,92.00
2023-08-06T19:34:03.222Z,92.00
2023-08-06T19:36:31.394Z,92.00
2023-08-06T19:38:58.398Z,92.00
2023-08-06T19:41:25.347Z,92.00
2023-08-06T19:43:52.228Z,92.00
2023-08-06T19:46:19.072Z,92.00
2023-08-06T19:48:46.079Z,92.00
2023-08-06T19:51:12.970Z,92.00
2023-08-06T19:53:41.080Z,92.00
2023-08-06T19:56:07.891Z,92.00
2023-08-06T19:58:36.232Z,92.00
2023-08-06T20:01:07.537Z,92.00
2023-08-06T20:03:35.138Z,92.00
2023-08-06T20:06:03.235Z,92.00
2023-08-06T20:08:32.277Z,92.00
2023-08-06T20:10:59.373Z,92.00
2023-08-06T20:13:26.376Z,92.00
2023-08-06T20:15:53.429Z,92.00
2023-08-06T20:18:23.885Z,92.00
2023-08-06T20:20:51.807Z,92.00
2023-08-06T20:23:18.666Z,92.00
2023-08-06T20:25:45.667Z,91.90
2023-08-06T20:28:12.462Z,91.90
2023-08-06T20:30:42.916Z,91.90
2023-08-06T20:33:10.536Z,92.00
2023-08-06T20:35:41.696Z,91.90
2023-08-06T20:38:09.525Z,91.90
2023-08-06T20:40:40.150Z,91.90
2023-08-06T20:43:07.015Z,91.90
2023-08-06T20:45:33.824Z,91.90
2023-08-06T20:48:00.776Z,91.90
2023-08-06T20:50:27.858Z,91.90
2023-08-06T20:52:54.793Z,91.90
2023-08-06T20:55:29.692Z,91.90
2023-08-06T20:57:56.488Z,91.90
2023-08-06T21:00:23.405Z,91.90
2023-08-06T21:02:50.299Z,91.90
2023-08-06T21:05:17.310Z,91.90
2023-08-06T21:07:44.147Z,91.90
2023-08-06T21:10:11.072Z,91.90
2023-08-06T21:12:37.855Z,91.90
2023-08-06T21:15:05.652Z,91.90
2023-08-06T21:17:32.484Z,91.90
2023-08-06T21:19:59.343Z,91.80
2023-08-06T21:22:26.090Z,91.80
2023-08-06T21:24:52.836Z,91.80
2023-08-06T21:27:19.612Z,91.80
2023-08-06T21:29:46.417Z,91.70
2023-08-06T21:32:13.189Z,91.70
2023-08-06T21:34:39.955Z,91.70
2023-08-06T21:37:06.872Z,91.80
2023-08-06T21:39:35.636Z,91.80
2023-08-06T21:42:02.704Z,91.80
2023-08-06T21:44:29.587Z,91.80
2023-08-06T21:46:56.504Z,91.80
2023-08-06T21:49:24.976Z,91.80
2023-08-06T21:51:52.047Z,91.80
2023-08-06T21:54:18.847Z,91.80
2023-08-06T21:56:45.626Z,91.80
2023-08-06T21:59:12.405Z,91.80
2023-08-06T22:01:39.160Z,91.80
2023-08-06T22:04:05.901Z,91.90
2023-08-06T22:06:32.702Z,91.80
2023-08-06T22:08:59.537Z,91.80
2023-08-06T22:11:26.365Z,91.80
2023-08-06T22:13:53.187Z,91.80
2023-08-06T22:16:20.044Z,91.80
2023-08-06T22:18:46.830Z,91.80
2023-08-06T22:21:13.606Z,91.80
2023-08-06T22:23:40.338Z,91.80
2023-08-06T22:26:07.111Z,91.80
2023-08-06T22:28:34.629Z,91.80
2023-08-06T22:31:01.432Z,91.80
2023-08-06T22:33:31.335Z,91.80
2023-08-06T22:35:58.557Z,91.80
2023-08-06T22:38:26.906Z,91.80
2023-08-06T22:40:53.696Z,91.80
2023-08-06T22:43:20.446Z,91.80
2023-08-06T22:45:47.233Z,91.80
2023-08-06T22:48:14.074Z,91.80
2023-08-06T22:50:40.851Z,91.80
2023-08-06T22:53:07.717Z,91.80
2023-08-06T22:58:04.178Z,91.80
2023-08-06T23:00:31.505Z,91.80
2023-08-06T23:03:09.162Z,91.80
2023-08-06T23:05:38.588Z,91.80
2023-08-06T23:08:05.533Z,91.80
2023-08-06T23:10:32.565Z,91.80
2023-08-06T23:12:59.303Z,91.80
2023-08-06T23:15:26.064Z,91.80
2023-08-06T23:17:52.910Z,91.80
2023-08-06T23:20:19.807Z,91.80
2023-08-06T23:22:46.528Z,91.80
2023-08-06T23:25:13.336Z,91.80
2023-08-06T23:27:40.123Z,91.80
2023-08-06T23:30:07.495Z,91.80
2023-08-06T23:32:35.490Z,91.80
2023-08-06T23:35:04.124Z,91.80
2023-08-06T23:37:31.199Z,91.80
2023-08-06T23:39:58.022Z,91.80
2023-08-06T23:42:25.916Z,91.80
2023-08-06T23:44:52.842Z,91.80
2023-08-06T23:47:19.838Z,92.10
2023-08-06T23:49:46.659Z,91.80
2023-08-06T23:52:13.546Z,91.80
2023-08-06T23:54:41.230Z,92.10
2023-08-06T23:57:08.212Z,91.80
2023-08-06T23:59:35.200Z,92.10
